Time;durP1;ratioP1;P1;durP2;ratioP2;P2;SDS_P1;SDS_P2;PMS_P1;PMS_P2;Temp;Humidity;BMP_temperature;BMP_pressure;BME280_temperature;BME280_humidity;BME280_pressure;Samples;Min_cycle;Max_cycle;Signal;HPM_P1;HPM_P2
2024/01/07 00:00:36;;;;;;;10.70;6.05;;;;;;;;;;5102755;27;20071;-66
2024/01/07 00:03:03;;;;;;;10.77;6.25;;;;;;;;;;5101415;27;20457;-66
2024/01/07 00:05:29;;;;;;;11.65;6.28;;;;;;;;;;5112021;27;20554;-66
2024/01/07 00:07:55;;;;;;;10.95;5.95;;;;;;;;;;5100261;27;20039;-66
2024/01/07 00:10:24;;;;;;;11.27;6.03;;;;;;;;;;5101742;27;20043;-66
2024/01/07 00:12:52;;;;;;;12.98;5.50;;;;;;;;;;5096837;28;20071;-66
2024/01/07 00:15:18;;;;;;;9.85;5.90;;;;;;;;;;5103563;27;20134;-66
2024/01/07 00:17:44;;;;;;;11.35;6.20;;;;;;;;;;5101357;27;20107;-66
2024/01/07 00:20:11;;;;;;;11.27;5.78;;;;;;;;;;5104702;27;20057;-66
2024/01/07 00:22:37;;;;;;;10.05;6.57;;;;;;;;;;5100269;28;20114;-66
2024/01/07 00:25:03;;;;;;;13.02;5.50;;;;;;;;;;5097958;27;20095;-66
2024/01/07 00:27:29;;;;;;;10.73;6.20;;;;;;;;;;5083213;27;20089;-66
2024/01/07 00:29:55;;;;;;;10.35;6.18;;;;;;;;;;5100014;27;20048;-66
2024/01/07 00:32:22;;;;;;;13.07;6.38;;;;;;;;;;5119109;27;20082;-66
2024/01/07 00:34:48;;;;;;;13.40;6.78;;;;;;;;;;5103828;27;20551;-66
2024/01/07 00:37:14;;;;;;;10.90;6.85;;;;;;;;;;5116315;27;20031;-66
2024/01/07 00:39:42;;;;;;;14.77;6.55;;;;;;;;;;5113892;27;20062;-66
2024/01/07 00:42:08;;;;;;;10.25;5.75;;;;;;;;;;5098805;27;20093;-66
2024/01/07 00:44:34;;;;;;;12.00;6.65;;;;;;;;;;5095010;27;20156;-66
2024/01/07 00:47:00;;;;;;;13.43;7.18;;;;;;;;;;5096991;27;20064;-66
2024/01/07 00:49:27;;;;;;;13.82;6.80;;;;;;;;;;5112681;27;20130;-66
2024/01/07 00:51:54;;;;;;;14.70;7.38;;;;;;;;;;5101298;27;20126;-66
2024/01/07 00:54:20;;;;;;;13.27;7.07;;;;;;;;;;5116219;27;20054;-66
2024/01/07 00:56:46;;;;;;;12.27;6.57;;;;;;;;;;5100394;27;20051;-66
2024/01/07 00:59:12;;;;;;;13.15;7.00;;;;;;;;;;5115086;27;20138;-66
2024/01/07 01:01:38;;;;;;;13.30;7.78;;;;;;;;;;5100464;27;20202;-66
2024/01/07 01:04:05;;;;;;;10.38;6.65;;;;;;;;;;5099795;27;20050;-66
2024/01/07 01:06:31;;;;;;;11.68;6.65;;;;;;;;;;5079571;27;20035;-66
2024/01/07 01:08:57;;;;;;;13.65;6.40;;;;;;;;;;5098188;27;20782;-66
2024/01/07 01:11:23;;;;;;;12.60;6.78;;;;;;;;;;5094650;27;20036;-66
2024/01/07 01:13:49;;;;;;;13.38;6.95;;;;;;;;;;5115992;27;20088;-66
2024/01/07 01:16:15;;;;;;;16.63;8.20;;;;;;;;;;5116364;27;20046;-66
2024/01/07 01:18:42;;;;;;;11.23;7.20;;;;;;;;;;5116983;27;20056;-66
2024/01/07 01:21:08;;;;;;;12.00;7.47;;;;;;;;;;5114061;27;20074;-66
2024/01/07 01:23:34;;;;;;;13.32;7.45;;;;;;;;;;5102028;27;20035;-66
2024/01/07 01:26:00;;;;;;;11.30;6.80;;;;;;;;;;5102557;27;20043;-66
2024/01/07 01:28:26;;;;;;;12.68;7.30;;;;;;;;;;5099280;28;20068;-66
2024/01/07 01:30:52;;;;;;;12.63;7.03;;;;;;;;;;5092904;28;20163;-66
2024/01/07 01:33:19;;;;;;;13.57;6.90;;;;;;;;;;5115134;27;20043;-66
2024/01/07 01:35:45;;;;;;;11.93;7.45;;;;;;;;;;5116755;27;20114;-66
2024/01/07 01:38:11;;;;;;;12.98;7.43;;;;;;;;;;5119658;27;20341;-66
2024/01/07 01:40:37;;;;;;;15.10;7.18;;;;;;;;;;5117332;27;20376;-66
2024/01/07 01:43:03;;;;;;;12.18;6.70;;;;;;;;;;5117257;27;20043;-66
2024/01/07 01:45:29;;;;;;;12.98;7.15;;;;;;;;;;5119646;28;20055;-66
2024/01/07 01:47:56;;;;;;;12.90;7.97;;;;;;;;;;5119050;27;20082;-66
2024/01/07 01:50:22;;;;;;;15.65;8.30;;;;;;;;;;5119425;28;20035;-66
2024/01/07 01:52:49;;;;;;;13.10;6.95;;;;;;;;;;5120283;28;20443;-66
2024/01/07 01:55:15;;;;;;;13.32;7.50;;;;;;;;;;5118381;28;20042;-66
2024/01/07 01:57:41;;;;;;;14.15;7.57;;;;;;;;;;5100798;28;20043;-66
2024/01/07 02:00:08;;;;;;;14.30;7.68;;;;;;;;;;5099391;28;20032;-66
2024/01/07 02:02:34;;;;;;;11.60;7.00;;;;;;;;;;5077103;28;20051;-66
2024/01/07 02:05:02;;;;;;;15.60;8.30;;;;;;;;;;5097424;28;20063;-66
2024/01/07 02:07:28;;;;;;;12.77;7.70;;;;;;;;;;5101182;28;20050;-66
2024/01/07 02:09:55;;;;;;;15.88;6.93;;;;;;;;;;5121780;27;20149;-66
2024/01/07 02:12:21;;;;;;;14.55;7.20;;;;;;;;;;5114374;28;20039;-66
2024/01/07 02:14:47;;;;;;;15.15;7.32;;;;;;;;;;5098924;27;20117;-66
2024/01/07 02:17:13;;;;;;;15.13;7.50;;;;;;;;;;5099739;27;20077;-66
2024/01/07 02:19:39;;;;;;;11.52;6.88;;;;;;;;;;5104947;27;20085;-66
2024/01/07 02:22:05;;;;;;;12.27;6.22;;;;;;;;;;5107042;27;20055;-66
2024/01/07 02:24:32;;;;;;;11.23;5.85;;;;;;;;;;5105220;27;20488;-66
2024/01/07 02:27:02;;;;;;;14.10;7.50;;;;;;;;;;5100814;27;20048;-66
2024/01/07 02:29:29;;;;;;;13.85;6.65;;;;;;;;;;5119641;27;20557;-66
2024/01/07 02:31:55;;;;;;;11.63;6.15;;;;;;;;;;5104247;27;20060;-66
2024/01/07 02:34:21;;;;;;;11.65;6.30;;;;;;;;;;5103425;27;21280;-66
2024/01/07 02:36:47;;;;;;;13.25;6.10;;;;;;;;;;5121554;27;20049;-66
2024/01/07 02:39:13;;;;;;;14.88;6.88;;;;;;;;;;5119120;27;20496;-66
2024/01/07 02:41:40;;;;;;;9.70;5.68;;;;;;;;;;5121501;27;20176;-66
2024/01/07 02:44:06;;;;;;;12.30;6.10;;;;;;;;;;5099486;27;20459;-66
2024/01/07 02:46:32;;;;;;;11.20;5.30;;;;;;;;;;5119125;27;20043;-66
2024/01/07 02:48:58;;;;;;;10.63;5.32;;;;;;;;;;5102875;27;20048;-66
2024/01/07 02:51:24;;;;;;;10.18;5.80;;;;;;;;;;5124446;27;20047;-66
2024/01/07 02:53:50;;;;;;;8.98;5.25;;;;;;;;;;5103217;27;20051;-66
2024/01/07 02:56:16;;;;;;;13.45;5.70;;;;;;;;;;5098934;27;20035;-66
2024/01/07 02:58:43;;;;;;;10.93;6.13;;;;;;;;;;5118495;27;20201;-66
2024/01/07 03:01:09;;;;;;;12.57;7.35;;;;;;;;;;5115450;27;20432;-66
2024/01/07 03:03:36;;;;;;;11.75;6.00;;;;;;;;;;5117888;27;20115;-66
2024/01/07 03:06:02;;;;;;;13.45;6.45;;;;;;;;;;5116955;27;20136;-66
2024/01/07 03:08:28;;;;;;;11.75;6.65;;;;;;;;;;5118418;27;20046;-66
2024/01/07 03:10:54;;;;;;;12.20;6.10;;;;;;;;;;5118559;27;20439;-66
2024/01/07 03:13:21;;;;;;;10.60;5.75;;;;;;;;;;5102075;27;20047;-66
2024/01/07 03:15:47;;;;;;;11.55;5.43;;;;;;;;;;5102828;27;20039;-66
2024/01/07 03:18:13;;;;;;;9.40;5.53;;;;;;;;;;5126272;27;20080;-66
2024/01/07 03:20:39;;;;;;;11.55;5.10;;;;;;;;;;5124667;27;20043;-66
2024/01/07 03:23:05;;;;;;;9.13;4.80;;;;;;;;;;5122377;27;20043;-65
2024/01/07 03:25:32;;;;;;;11.70;6.10;;;;;;;;;;5121704;27;20051;-65
2024/01/07 03:27:58;;;;;;;8.10;4.93;;;;;;;;;;5122871;27;20122;-66
2024/01/07 03:30:24;;;;;;;7.80;4.28;;;;;;;;;;5119353;27;20497;-66
2024/01/07 03:32:50;;;;;;;8.45;4.05;;;;;;;;;;5124967;27;20167;-66
2024/01/07 03:35:16;;;;;;;7.90;4.25;;;;;;;;;;5103469;27;20054;-66
2024/01/07 03:37:42;;;;;;;7.65;4.00;;;;;;;;;;5120648;27;20430;-66
2024/01/07 03:40:12;;;;;;;8.00;4.25;;;;;;;;;;5123052;27;20042;-66
2024/01/07 03:42:38;;;;;;;8.52;4.30;;;;;;;;;;5113298;27;20039;-66
2024/01/07 03:45:05;;;;;;;9.25;3.92;;;;;;;;;;5122339;27;20062;-66
2024/01/07 03:47:31;;;;;;;9.30;4.03;;;;;;;;;;5098432;27;20368;-66
2024/01/07 03:49:58;;;;;;;8.55;3.58;;;;;;;;;;5098239;27;20038;-66
2024/01/07 03:52:24;;;;;;;7.85;3.67;;;;;;;;;;5102079;27;20493;-66
2024/01/07 03:54:50;;;;;;;5.63;3.10;;;;;;;;;;5125082;27;20047;-66
2024/01/07 03:57:16;;;;;;;6.63;3.22;;;;;;;;;;5102823;27;20042;-66
2024/01/07 03:59:42;;;;;;;7.55;3.28;;;;;;;;;;5099962;27;20499;-66
2024/01/07 04:02:08;;;;;;;9.00;3.38;;;;;;;;;;5100560;27;20114;-66
2024/01/07 04:04:35;;;;;;;4.43;2.60;;;;;;;;;;5123604;27;20035;-66
2024/01/07 04:07:01;;;;;;;5.40;2.80;;;;;;;;;;5124117;27;20067;-66
2024/01/07 04:09:27;;;;;;;6.78;2.80;;;;;;;;;;5124712;27;20490;-66
2024/01/07 04:11:54;;;;;;;7.95;3.05;;;;;;;;;;5118811;27;20096;-66
2024/01/07 04:14:20;;;;;;;5.60;2.78;;;;;;;;;;5104770;27;20035;-66
2024/01/07 04:16:46;;;;;;;6.90;2.45;;;;;;;;;;5102841;27;20104;-66
2024/01/07 04:19:12;;;;;;;7.00;2.92;;;;;;;;;;5102352;27;20061;-66
2024/01/07 04:21:38;;;;;;;6.47;3.47;;;;;;;;;;5120796;27;20092;-66
2024/01/07 04:24:05;;;;;;;7.55;2.72;;;;;;;;;;5103047;27;20185;-66
2024/01/07 04:26:31;;;;;;;7.72;2.78;;;;;;;;;;5103358;27;20091;-66
2024/01/07 04:28:57;;;;;;;9.02;3.10;;;;;;;;;;5124443;27;20119;-66
2024/01/07 04:31:23;;;;;;;8.55;3.00;;;;;;;;;;5119059;27;20122;-66
2024/01/07 04:33:49;;;;;;;10.00;3.30;;;;;;;;;;5100415;27;20047;-66
2024/01/07 04:36:15;;;;;;;7.45;2.80;;;;;;;;;;5099858;27;20363;-66
2024/01/07 04:38:42;;;;;;;6.97;2.85;;;;;;;;;;5106057;27;20137;-66
2024/01/07 04:41:08;;;;;;;11.95;3.38;;;;;;;;;;5121945;27;20059;-66
2024/01/07 04:43:35;;;;;;;4.97;2.22;;;;;;;;;;5103893;27;20126;-66
2024/01/07 04:46:01;;;;;;;6.32;2.70;;;;;;;;;;5101218;27;20405;-66
2024/01/07 04:48:28;;;;;;;7.45;2.97;;;;;;;;;;5122546;27;20054;-66
2024/01/07 04:50:54;;;;;;;6.03;2.65;;;;;;;;;;5118123;27;20115;-66
2024/01/07 04:53:20;;;;;;;6.72;2.90;;;;;;;;;;5117674;27;20039;-66
2024/01/07 04:55:46;;;;;;;6.40;2.40;;;;;;;;;;5104076;27;20541;-66
2024/01/07 04:58:12;;;;;;;6.47;3.05;;;;;;;;;;5101092;27;20134;-66
2024/01/07 05:00:38;;;;;;;5.15;2.45;;;;;;;;;;5098786;27;20044;-66
2024/01/07 05:03:05;;;;;;;4.05;2.17;;;;;;;;;;5099722;27;20399;-66
2024/01/07 05:05:31;;;;;;;7.10;2.13;;;;;;;;;;5101040;27;20054;-66
2024/01/07 05:08:00;;;;;;;4.65;2.10;;;;;;;;;;5099496;27;20165;-66
2024/01/07 05:10:26;;;;;;;4.57;2.20;;;;;;;;;;5121546;27;20405;-66
2024/01/07 05:12:52;;;;;;;5.93;2.50;;;;;;;;;;5121872;27;20043;-66
2024/01/07 05:15:18;;;;;;;4.50;1.75;;;;;;;;;;5121774;27;20043;-66
2024/01/07 05:17:45;;;;;;;6.80;2.08;;;;;;;;;;5121728;27;20031;-66
2024/01/07 05:20:11;;;;;;;7.35;2.28;;;;;;;;;;5083246;27;20516;-66
2024/01/07 05:22:37;;;;;;;4.80;2.22;;;;;;;;;;5120871;27;20792;-66
2024/01/07 05:25:04;;;;;;;5.35;1.80;;;;;;;;;;5117958;27;20449;-66
2024/01/07 05:27:30;;;;;;;4.15;1.92;;;;;;;;;;5116940;27;20043;-66
2024/01/07 05:29:57;;;;;;;6.22;2.15;;;;;;;;;;5075061;27;20490;-66
2024/01/07 05:32:23;;;;;;;6.45;1.83;;;;;;;;;;5101999;28;20077;-66
2024/01/07 05:34:50;;;;;;;4.32;2.00;;;;;;;;;;5098328;27;20119;-66
2024/01/07 05:37:16;;;;;;;5.32;2.03;;;;;;;;;;5103941;27;20127;-66
2024/01/07 05:39:42;;;;;;;6.40;1.80;;;;;;;;;;5120767;27;21389;-66
2024/01/07 05:42:08;;;;;;;6.57;1.73;;;;;;;;;;5118519;27;20047;-66
2024/01/07 05:44:35;;;;;;;6.03;1.92;;;;;;;;;;5117781;27;20045;-66
2024/01/07 05:47:01;;;;;;;4.38;1.92;;;;;;;;;;5102623;28;20169;-66
2024/01/07 05:49:27;;;;;;;4.70;2.00;;;;;;;;;;5123406;27;20051;-67
2024/01/07 05:51:54;;;;;;;6.60;1.83;;;;;;;;;;5123752;27;20118;-66
2024/01/07 05:54:20;;;;;;;4.13;1.65;;;;;;;;;;5124899;27;20343;-66
2024/01/07 05:56:46;;;;;;;4.60;1.80;;;;;;;;;;5126263;27;20046;-66
2024/01/07 05:59:12;;;;;;;9.00;1.73;;;;;;;;;;5110379;27;20051;-66
2024/01/07 06:01:39;;;;;;;6.88;2.05;;;;;;;;;;5103649;27;20054;-66
2024/01/07 06:04:05;;;;;;;6.07;1.50;;;;;;;;;;5102612;27;20043;-66
2024/01/07 06:06:31;;;;;;;3.88;1.60;;;;;;;;;;5108099;27;20051;-66
2024/01/07 06:08:58;;;;;;;5.18;1.80;;;;;;;;;;5108099;27;20043;-66
2024/01/07 06:11:24;;;;;;;7.68;1.58;;;;;;;;;;5126166;27;20138;-67
2024/01/07 06:13:50;;;;;;;4.18;1.70;;;;;;;;;;5111034;27;20055;-67
2024/01/07 06:16:16;;;;;;;16.30;8.10;;;;;;;;;;5110957;27;20054;-66
2024/01/07 06:18:42;;;;;;;9.23;2.28;;;;;;;;;;5107614;27;20082;-66
2024/01/07 06:21:09;;;;;;;8.02;2.13;;;;;;;;;;5109640;27;20416;-66
2024/01/07 06:23:35;;;;;;;3.65;1.48;;;;;;;;;;5109552;27;20047;-66
2024/01/07 06:26:03;;;;;;;5.13;1.70;;;;;;;;;;5127354;27;20063;-66
2024/01/07 06:28:30;;;;;;;5.57;1.90;;;;;;;;;;5129880;27;20054;-66
2024/01/07 06:30:56;;;;;;;3.67;1.60;;;;;;;;;;5127930;27;20051;-66
2024/01/07 06:33:22;;;;;;;5.28;2.00;;;;;;;;;;5127355;27;20035;-66
2024/01/07 06:35:48;;;;;;;6.43;1.85;;;;;;;;;;5125855;27;20031;-65
2024/01/07 06:38:15;;;;;;;6.35;2.10;;;;;;;;;;5127419;27;20394;-66
2024/01/07 06:40:42;;;;;;;5.50;1.80;;;;;;;;;;5126511;27;20078;-68
2024/01/07 06:43:08;;;;;;;5.50;2.30;;;;;;;;;;5124084;27;20102;-66
2024/01/07 06:45:34;;;;;;;4.68;1.60;;;;;;;;;;5105033;27;20039;-66
2024/01/07 06:48:01;;;;;;;7.00;2.25;;;;;;;;;;5125426;27;20438;-66
2024/01/07 06:50:27;;;;;;;3.92;1.40;;;;;;;;;;5125404;27;20141;-67
2024/01/07 06:52:53;;;;;;;4.32;1.92;;;;;;;;;;5082864;27;20070;-66
2024/01/07 06:55:19;;;;;;;6.78;1.90;;;;;;;;;;5100916;27;20088;-66
2024/01/07 06:57:45;;;;;;;5.70;1.38;;;;;;;;;;5103954;27;20039;-66
2024/01/07 07:00:12;;;;;;;5.45;1.90;;;;;;;;;;5126893;27;20126;-66
2024/01/07 07:02:38;;;;;;;4.50;1.55;;;;;;;;;;5122465;27;20123;-71
2024/01/07 07:05:04;;;;;;;7.03;4.03;;;;;;;;;;5088250;27;20035;-66
2024/01/07 07:07:30;;;;;;;6.45;2.30;;;;;;;;;;5106242;27;20049;-66
2024/01/07 07:09:56;;;;;;;6.07;2.25;;;;;;;;;;5102116;27;20051;-66
2024/01/07 07:12:23;;;;;;;4.88;1.92;;;;;;;;;;5117934;27;20437;-66
2024/01/07 07:14:49;;;;;;;10.05;2.00;;;;;;;;;;5101814;28;20185;-66
2024/01/07 07:17:15;;;;;;;4.45;1.80;;;;;;;;;;5119829;27;20074;-66
2024/01/07 07:19:41;;;;;;;6.68;1.70;;;;;;;;;;5102636;27;20065;-66
2024/01/07 07:22:08;;;;;;;3.65;1.95;;;;;;;;;;5122395;27;20385;-66
2024/01/07 07:24:34;;;;;;;6.38;2.03;;;;;;;;;;5115534;27;20072;-66
2024/01/07 07:27:00;;;;;;;4.30;1.98;;;;;;;;;;5094886;27;20459;-66
2024/01/07 07:29:26;;;;;;;5.68;1.95;;;;;;;;;;5102447;27;20051;-66
2024/01/07 07:31:52;;;;;;;5.35;2.13;;;;;;;;;;5117720;27;20091;-66
2024/01/07 07:34:19;;;;;;;5.85;1.73;;;;;;;;;;5119910;27;20059;-66
2024/01/07 07:36:45;;;;;;;5.95;2.90;;;;;;;;;;5102711;27;20171;-66
2024/01/07 07:39:13;;;;;;;5.53;2.03;;;;;;;;;;5120777;27;20114;-66
2024/01/07 07:41:39;;;;;;;5.75;2.00;;;;;;;;;;5120875;27;20579;-66
2024/01/07 07:44:05;;;;;;;5.57;2.03;;;;;;;;;;5105026;27;20035;-79
2024/01/07 07:46:32;;;;;;;3.47;1.65;;;;;;;;;;5109170;27;20050;-66
2024/01/07 07:48:58;;;;;;;7.82;2.67;;;;;;;;;;5127541;27;20654;-67
2024/01/07 07:51:24;;;;;;;4.60;2.00;;;;;;;;;;5101225;27;20043;-68
2024/01/07 07:53:50;;;;;;;4.40;1.90;;;;;;;;;;5102988;27;20047;-66
2024/01/07 07:56:16;;;;;;;4.50;1.98;;;;;;;;;;5106619;27;20092;-67
2024/01/07 07:58:43;;;;;;;3.30;1.60;;;;;;;;;;5121937;27;20043;-66
2024/01/07 08:01:09;;;;;;;5.07;1.83;;;;;;;;;;5117581;27;20048;-67
2024/01/07 08:03:36;;;;;;;6.22;2.15;;;;;;;;;;5104845;27;20038;-67
2024/01/07 08:06:02;;;;;;;5.32;2.13;;;;;;;;;;5122028;27;20506;-67
2024/01/07 08:08:29;;;;;;;5.72;2.15;;;;;;;;;;5105861;27;20031;-67
2024/01/07 08:10:55;;;;;;;5.28;1.73;;;;;;;;;;5102754;27;20444;-66
2024/01/07 08:13:21;;;;;;;3.60;1.33;;;;;;;;;;5104872;27;20136;-67
2024/01/07 08:15:47;;;;;;;6.47;3.63;;;;;;;;;;5105834;27;20460;-67
2024/01/07 08:18:13;;;;;;;6.63;2.50;;;;;;;;;;5100330;27;20051;-68
2024/01/07 08:20:40;;;;;;;5.75;2.35;;;;;;;;;;5105894;27;20112;-66
2024/01/07 08:23:06;;;;;;;5.40;2.13;;;;;;;;;;5114460;27;20055;-65
2024/01/07 08:25:32;;;;;;;3.63;1.60;;;;;;;;;;5105492;27;20084;-65
2024/01/07 08:27:59;;;;;;;6.22;2.13;;;;;;;;;;5106042;27;20470;-65
2024/01/07 08:30:25;;;;;;;5.35;2.72;;;;;;;;;;5105543;27;20043;-65
2024/01/07 08:32:51;;;;;;;3.70;1.77;;;;;;;;;;5119771;27;20132;-68
2024/01/07 08:35:17;;;;;;;5.55;1.90;;;;;;;;;;5098444;27;20459;-66
2024/01/07 08:37:44;;;;;;;5.45;2.00;;;;;;;;;;5099986;27;20487;-66
2024/01/07 08:40:11;;;;;;;4.85;2.10;;;;;;;;;;5123896;27;20043;-66
2024/01/07 08:42:37;;;;;;;5.18;2.00;;;;;;;;;;5116012;27;20076;-74
2024/01/07 08:45:04;;;;;;;3.95;1.48;;;;;;;;;;5100362;27;20372;-65
2024/01/07 08:47:31;;;;;;;7.18;1.98;;;;;;;;;;5121497;27;20035;-70
2024/01/07 08:49:57;;;;;;;5.15;2.15;;;;;;;;;;5118474;27;20111;-68
2024/01/07 08:52:24;;;;;;;5.00;2.03;;;;;;;;;;5118793;27;20078;-68
2024/01/07 08:54:50;;;;;;;4.93;2.50;;;;;;;;;;5122573;27;20039;-68
2024/01/07 08:57:16;;;;;;;5.93;2.10;;;;;;;;;;5123134;27;20130;-68
2024/01/07 08:59:43;;;;;;;5.18;2.38;;;;;;;;;;5121326;27;20506;-68
2024/01/07 09:02:09;;;;;;;6.53;2.05;;;;;;;;;;5121348;27;20096;-66
2024/01/07 09:04:35;;;;;;;4.65;2.00;;;;;;;;;;5103094;27;20035;-66
2024/01/07 09:07:01;;;;;;;4.90;2.60;;;;;;;;;;5102202;27;20043;-66
2024/01/07 09:09:28;;;;;;;8.43;5.38;;;;;;;;;;5097350;28;20366;-65
2024/01/07 09:11:56;;;;;;;6.60;3.63;;;;;;;;;;5117072;27;20257;-65
2024/01/07 09:14:22;;;;;;;5.30;2.95;;;;;;;;;;5097058;27;20123;-65
2024/01/07 09:16:49;;;;;;;5.63;2.30;;;;;;;;;;5111535;27;20078;-65
2024/01/07 09:19:15;;;;;;;5.53;2.30;;;;;;;;;;5095762;27;20497;-65
2024/01/07 09:21:41;;;;;;;6.38;2.00;;;;;;;;;;5121050;27;20087;-65
2024/01/07 09:24:08;;;;;;;4.05;2.03;;;;;;;;;;5117334;27;20068;-65
2024/01/07 09:26:34;;;;;;;5.25;2.00;;;;;;;;;;5101329;28;20518;-66
2024/01/07 09:29:01;;;;;;;5.50;1.90;;;;;;;;;;5119341;27;20118;-65
2024/01/07 09:31:27;;;;;;;7.38;2.35;;;;;;;;;;5101226;27;20108;-65
2024/01/07 09:33:53;;;;;;;8.07;2.47;;;;;;;;;;5106327;27;20043;-65
2024/01/07 09:36:20;;;;;;;4.30;2.10;;;;;;;;;;5125989;27;20050;-65
2024/01/07 09:38:46;;;;;;;5.30;2.30;;;;;;;;;;5105584;28;20059;-65
2024/01/07 09:41:12;;;;;;;6.53;2.13;;;;;;;;;;5104551;28;20054;-66
2024/01/07 09:43:38;;;;;;;5.10;2.42;;;;;;;;;;5108179;27;20347;-66
2024/01/07 09:46:05;;;;;;;6.10;2.20;;;;;;;;;;5119662;27;20047;-66
2024/01/07 09:48:31;;;;;;;4.97;1.90;;;;;;;;;;5102729;28;20475;-66
2024/01/07 09:50:58;;;;;;;4.97;2.33;;;;;;;;;;5103284;28;20054;-66
2024/01/07 09:53:27;;;;;;;5.57;2.10;;;;;;;;;;5120522;28;20106;-66
2024/01/07 09:56:02;;;;;;;4.85;1.98;;;;;;;;;;5078546;28;20054;-66
2024/01/07 09:58:28;;;;;;;4.47;1.90;;;;;;;;;;5105144;28;20368;-65
2024/01/07 10:00:55;;;;;;;8.30;2.30;;;;;;;;;;5099421;28;20035;-65
2024/01/07 10:03:21;;;;;;;5.82;2.40;;;;;;;;;;5102973;28;20513;-65
2024/01/07 10:05:47;;;;;;;4.43;1.40;;;;;;;;;;5119209;28;20122;-65
2024/01/07 10:08:13;;;;;;;5.65;2.03;;;;;;;;;;5116929;28;20043;-66
2024/01/07 10:10:40;;;;;;;5.85;2.03;;;;;;;;;;5105024;28;20043;-66
2024/01/07 10:13:08;;;;;;;5.15;1.85;;;;;;;;;;5119631;28;20043;-65
2024/01/07 10:15:35;;;;;;;4.20;2.03;;;;;;;;;;5103926;28;20074;-66
2024/01/07 10:18:04;;;;;;;5.95;2.33;;;;;;;;;;5105466;28;20783;-65
2024/01/07 10:20:31;;;;;;;4.82;1.65;;;;;;;;;;5120959;28;20047;-66
2024/01/07 10:22:57;;;;;;;5.75;1.80;;;;;;;;;;5102780;28;20130;-65
2024/01/07 10:25:24;;;;;;;5.60;1.85;;;;;;;;;;5115197;28;20489;-66
2024/01/07 10:27:50;;;;;;;5.38;2.05;;;;;;;;;;5106375;28;20052;-65
2024/01/07 10:30:16;;;;;;;7.03;2.03;;;;;;;;;;5104963;28;20043;-66
2024/01/07 10:32:43;;;;;;;4.38;2.10;;;;;;;;;;5101579;28;20173;-65
2024/01/07 10:35:14;;;;;;;4.82;2.00;;;;;;;;;;5116839;28;20031;-66
2024/01/07 10:37:40;;;;;;;5.93;2.10;;;;;;;;;;5110495;27;20035;-65
2024/01/07 10:40:08;;;;;;;5.32;1.95;;;;;;;;;;5117551;27;20426;-66
2024/01/07 10:42:34;;;;;;;4.72;1.85;;;;;;;;;;5110533;27;20335;-66
2024/01/07 10:45:01;;;;;;;4.30;1.92;;;;;;;;;;5121909;27;20447;-65
2024/01/07 10:47:30;;;;;;;4.43;2.05;;;;;;;;;;5103754;27;20043;-66
2024/01/07 10:49:57;;;;;;;4.65;1.95;;;;;;;;;;5108659;27;20088;-66
2024/01/07 10:52:24;;;;;;;5.78;1.85;;;;;;;;;;5107030;27;20126;-65
2024/01/07 10:54:50;;;;;;;7.43;2.10;;;;;;;;;;5127005;27;20043;-66
2024/01/07 10:57:22;;;;;;;6.10;2.17;;;;;;;;;;5122165;27;20459;-66
2024/01/07 10:59:50;;;;;;;5.68;2.33;;;;;;;;;;5122668;27;20535;-66
2024/01/07 11:02:16;;;;;;;7.40;2.40;;;;;;;;;;5106479;27;20044;-66
2024/01/07 11:04:48;;;;;;;4.90;2.03;;;;;;;;;;5103864;27;20044;-66
2024/01/07 11:07:20;;;;;;;4.35;2.25;;;;;;;;;;5120409;27;20038;-65
2024/01/07 11:09:53;;;;;;;6.13;2.30;;;;;;;;;;5101414;27;20035;-66
2024/01/07 11:12:19;;;;;;;7.50;2.53;;;;;;;;;;5122709;27;21409;-66
2024/01/07 11:14:52;;;;;;;3.92;2.08;;;;;;;;;;5126935;27;20047;-66
2024/01/07 11:17:38;;;;;;;5.93;2.28;;;;;;;;;;5127511;27;20039;-66
2024/01/07 11:20:06;;;;;;;6.45;2.22;;;;;;;;;;5119223;27;20750;-71
2024/01/07 11:22:32;;;;;;;5.05;2.30;;;;;;;;;;5102604;27;20129;-66
2024/01/07 11:24:59;;;;;;;5.95;2.30;;;;;;;;;;5118634;27;20047;-66
2024/01/07 11:27:27;;;;;;;4.90;2.30;;;;;;;;;;5096461;27;20100;-65
2024/01/07 11:29:54;;;;;;;6.47;2.17;;;;;;;;;;5117493;27;20100;-67
2024/01/07 11:32:22;;;;;;;5.30;2.20;;;;;;;;;;5100090;28;20477;-67
2024/01/07 11:34:51;;;;;;;10.15;2.15;;;;;;;;;;5101354;28;20824;-66
2024/01/07 11:37:18;;;;;;;5.05;1.92;;;;;;;;;;5062588;28;20040;-66
2024/01/07 11:39:45;;;;;;;5.55;2.00;;;;;;;;;;5084921;28;20482;-66
2024/01/07 11:42:12;;;;;;;6.50;2.20;;;;;;;;;;5087637;28;20131;-66
2024/01/07 11:44:45;;;;;;;5.20;1.90;;;;;;;;;;5086946;28;20051;-67
2024/01/07 11:47:11;;;;;;;3.75;2.00;;;;;;;;;;5085643;28;20054;-66
2024/01/07 11:49:38;;;;;;;5.05;2.33;;;;;;;;;;5105745;28;20046;-66
2024/01/07 11:52:05;;;;;;;6.93;2.20;;;;;;;;;;5087213;28;20666;-66
2024/01/07 11:54:32;;;;;;;5.78;2.13;;;;;;;;;;5104678;28;20043;-67
2024/01/07 11:56:58;;;;;;;4.82;2.00;;;;;;;;;;5082654;28;20078;-67
2024/01/07 11:59:24;;;;;;;4.90;2.00;;;;;;;;;;5061423;28;20043;-68
2024/01/07 12:01:51;;;;;;;6.70;2.10;;;;;;;;;;5101511;28;20047;-68
2024/01/07 12:04:17;;;;;;;8.30;2.60;;;;;;;;;;5102198;28;20127;-68
2024/01/07 12:06:44;;;;;;;5.30;2.08;;;;;;;;;;5083556;28;20406;-68
2024/01/07 12:09:13;;;;;;;5.68;2.17;;;;;;;;;;5102939;28;20047;-68
2024/01/07 12:11:41;;;;;;;6.63;2.40;;;;;;;;;;5089059;28;20094;-68
2024/01/07 12:14:08;;;;;;;6.97;2.28;;;;;;;;;;5106485;28;20072;-67
2024/01/07 12:16:34;;;;;;;4.50;2.38;;;;;;;;;;5101628;28;20138;-68
2024/01/07 12:19:01;;;;;;;5.72;2.25;;;;;;;;;;5091332;28;20051;-68
2024/01/07 12:21:29;;;;;;;7.65;2.53;;;;;;;;;;5082319;28;20046;-68
2024/01/07 12:23:56;;;;;;;6.38;2.22;;;;;;;;;;5107683;28;20100;-68
2024/01/07 12:26:26;;;;;;;5.85;2.13;;;;;;;;;;5108828;28;20043;-68
2024/01/07 12:28:55;;;;;;;8.05;2.70;;;;;;;;;;5084565;28;20502;-67
2024/01/07 12:31:21;;;;;;;6.07;2.70;;;;;;;;;;5091682;28;20498;-68
2024/01/07 12:33:47;;;;;;;5.75;2.67;;;;;;;;;;5090708;28;20043;-66
2024/01/07 12:36:14;;;;;;;7.18;2.28;;;;;;;;;;5101130;28;20043;-76
2024/01/07 12:38:41;;;;;;;6.10;2.58;;;;;;;;;;5089864;28;20047;-67
2024/01/07 12:41:07;;;;;;;4.75;2.00;;;;;;;;;;5090864;28;20132;-67
2024/01/07 12:43:34;;;;;;;6.38;2.50;;;;;;;;;;5089493;28;20047;-67
2024/01/07 12:46:04;;;;;;;4.97;2.33;;;;;;;;;;5106198;27;20050;-67
2024/01/07 12:48:31;;;;;;;7.18;2.10;;;;;;;;;;5100789;28;20118;-67
2024/01/07 12:50:57;;;;;;;8.02;2.72;;;;;;;;;;5086771;28;20039;-67
2024/01/07 12:53:24;;;;;;;4.43;2.42;;;;;;;;;;5100533;28;20126;-67
2024/01/07 12:55:50;;;;;;;8.30;2.60;;;;;;;;;;5100804;27;20052;-67
2024/01/07 12:58:16;;;;;;;4.47;2.08;;;;;;;;;;5100577;28;20048;-67
2024/01/07 13:00:43;;;;;;;8.02;2.33;;;;;;;;;;5100205;28;20043;-67
2024/01/07 13:03:17;;;;;;;5.45;2.58;;;;;;;;;;5089854;28;20068;-67
2024/01/07 13:05:43;;;;;;;6.78;2.40;;;;;;;;;;5086379;28;20058;-67
2024/01/07 13:08:10;;;;;;;9.45;2.47;;;;;;;;;;5089608;28;20076;-67
2024/01/07 13:10:36;;;;;;;6.50;2.28;;;;;;;;;;5101312;28;20047;-67
2024/01/07 13:13:03;;;;;;;7.45;2.70;;;;;;;;;;5098988;28;20118;-67
2024/01/07 13:15:29;;;;;;;7.43;2.25;;;;;;;;;;5098670;28;20134;-67
2024/01/07 13:17:55;;;;;;;8.70;2.35;;;;;;;;;;5097648;28;20042;-68
2024/01/07 13:20:22;;;;;;;6.38;2.33;;;;;;;;;;5097456;28;20044;-68
2024/01/07 13:22:48;;;;;;;4.97;2.15;;;;;;;;;;5101992;28;20058;-67
2024/01/07 13:25:14;;;;;;;6.45;2.60;;;;;;;;;;5097230;28;20467;-68
2024/01/07 13:27:42;;;;;;;4.65;2.22;;;;;;;;;;5099985;28;20040;-68
2024/01/07 13:30:09;;;;;;;6.22;2.33;;;;;;;;;;5088161;28;20503;-68
2024/01/07 13:32:36;;;;;;;7.68;2.53;;;;;;;;;;5083030;28;20035;-67
2024/01/07 13:35:03;;;;;;;6.18;2.13;;;;;;;;;;5059784;28;20074;-67
2024/01/07 13:37:30;;;;;;;6.55;2.60;;;;;;;;;;5081763;28;20106;-67
2024/01/07 13:39:57;;;;;;;6.30;2.45;;;;;;;;;;5083290;28;20036;-67
2024/01/07 13:42:23;;;;;;;6.22;2.10;;;;;;;;;;5101158;28;20065;-67
2024/01/07 13:44:49;;;;;;;8.95;2.45;;;;;;;;;;5084454;28;20047;-67
2024/01/07 13:47:17;;;;;;;6.90;2.53;;;;;;;;;;5101207;28;20368;-67
2024/01/07 13:49:44;;;;;;;5.65;2.13;;;;;;;;;;5100360;28;20130;-67
2024/01/07 13:52:11;;;;;;;7.10;2.33;;;;;;;;;;5079188;28;20040;-67
2024/01/07 13:54:37;;;;;;;7.22;2.40;;;;;;;;;;5102373;28;20047;-67
2024/01/07 13:57:04;;;;;;;5.22;2.33;;;;;;;;;;5078202;28;20472;-67
2024/01/07 13:59:30;;;;;;;6.22;2.22;;;;;;;;;;5100541;28;20136;-67
2024/01/07 14:01:57;;;;;;;8.55;3.05;;;;;;;;;;5099586;28;20447;-67
2024/01/07 14:04:24;;;;;;;7.35;2.97;;;;;;;;;;5103611;28;20086;-67
2024/01/07 14:06:55;;;;;;;8.25;2.70;;;;;;;;;;5095584;28;20044;-67
2024/01/07 14:09:21;;;;;;;12.18;2.80;;;;;;;;;;5094571;28;20410;-67
2024/01/07 14:11:47;;;;;;;7.10;2.60;;;;;;;;;;5080431;28;20451;-67
2024/01/07 14:14:13;;;;;;;7.40;3.03;;;;;;;;;;5101280;28;20028;-67
2024/01/07 14:16:40;;;;;;;7.43;2.60;;;;;;;;;;5079933;28;20056;-68
2024/01/07 14:19:06;;;;;;;11.60;2.75;;;;;;;;;;5098671;28;20176;-67
2024/01/07 14:21:33;;;;;;;5.45;2.38;;;;;;;;;;5098723;28;20039;-67
2024/01/07 14:23:59;;;;;;;6.35;2.10;;;;;;;;;;5087162;28;20371;-67
2024/01/07 14:26:25;;;;;;;7.53;2.53;;;;;;;;;;5107717;28;20126;-67
2024/01/07 14:28:51;;;;;;;4.40;1.90;;;;;;;;;;5106461;28;20044;-67
2024/01/07 14:31:18;;;;;;;5.78;2.22;;;;;;;;;;5097691;28;20056;-67
2024/01/07 14:33:44;;;;;;;5.72;2.10;;;;;;;;;;5106527;27;20513;-66
2024/01/07 14:36:16;;;;;;;4.97;1.98;;;;;;;;;;5102112;28;20086;-67